Terminal Aerodrome Forecast
Issued by NWS

Home | Current Version | Previous Version | Text Only | Print | Product List | Glossary On
Versions: 1 2 3 4 5 6 7 8 9 10 11 12 13
856
FTPA31 PHFO 221700
TAFLNY
TAF
PHNY 221728Z 2218/2318 VRB05KT P6SM SCT025 BKN070
     FM222000 22009KT P6SM SCT025
      TEMPO 2220/2224 BKN025
     FM230400 VRB04KT P6SM SCT025 BKN050
     FM231000 04011KT P6SM VCSH SCT025 BKN035
      AMD NOT SKED=

USA.gov is the U.S. government's official web portal to all federal, state and local government web resources and services.